createdAt,value
2022-10-08T00:04:03.526Z,13.09
2022-10-08T00:08:08.659Z,13.03
2022-10-08T00:12:11.989Z,12.98
2022-10-08T00:16:18.192Z,12.93
2022-10-08T00:20:22.832Z,12.91
2022-10-08T00:24:26.775Z,12.88
2022-10-08T00:28:30.046Z,12.84
2022-10-08T00:32:33.474Z,12.84
2022-10-08T00:36:39.443Z,12.78
2022-10-08T00:40:43.445Z,12.75
2022-10-08T00:44:56.136Z,12.71
2022-10-08T00:49:03.905Z,12.63
2022-10-08T00:53:12.755Z,12.54
2022-10-08T00:57:16.461Z,12.48
2022-10-08T01:01:20.581Z,12.44
2022-10-08T01:05:32.395Z,12.40
2022-10-08T01:09:41.759Z,12.35
2022-10-08T01:13:51.980Z,12.31
2022-10-08T01:18:04.530Z,12.27
2022-10-08T01:22:21.655Z,12.21
2022-10-08T01:26:43.504Z,12.19
2022-10-08T01:30:51.458Z,12.16
2022-10-08T01:34:59.246Z,12.10
2022-10-08T01:39:06.141Z,12.04
2022-10-08T01:43:12.573Z,11.97
2022-10-08T01:47:21.268Z,11.90
2022-10-08T01:51:32.974Z,11.85
2022-10-08T01:55:39.209Z,11.82
2022-10-08T01:59:46.487Z,11.81
2022-10-08T02:04:10.095Z,11.78
2022-10-08T02:08:13.268Z,11.76
2022-10-08T02:12:16.491Z,11.70
2022-10-08T02:16:27.357Z,11.65
2022-10-08T02:20:35.244Z,11.61
2022-10-08T02:24:43.212Z,11.60
2022-10-08T02:28:50.794Z,11.58
2022-10-08T02:33:00.635Z,11.55
2022-10-08T02:37:11.488Z,11.51
2022-10-08T02:41:16.547Z,11.47
2022-10-08T02:45:24.388Z,11.44
2022-10-08T02:49:32.139Z,11.43
2022-10-08T02:53:40.035Z,11.39
2022-10-08T02:57:47.335Z,11.37
2022-10-08T03:01:53.419Z,11.35
2022-10-08T03:05:58.822Z,11.32
2022-10-08T03:10:05.776Z,11.28
2022-10-08T03:14:13.673Z,11.26
2022-10-08T03:18:17.189Z,11.24
2022-10-08T03:22:20.714Z,11.22
2022-10-08T03:26:25.429Z,11.21
2022-10-08T03:30:28.480Z,11.18
2022-10-08T03:34:31.686Z,11.16
2022-10-08T03:38:35.269Z,11.12
2022-10-08T03:42:39.909Z,11.10
2022-10-08T03:46:42.792Z,11.10
2022-10-08T03:50:52.089Z,11.11
2022-10-08T03:54:55.170Z,11.12
2022-10-08T03:59:01.152Z,11.13
2022-10-08T04:03:04.114Z,11.15
2022-10-08T04:07:07.528Z,11.14
2022-10-08T04:11:13.213Z,11.14
2022-10-08T04:15:17.691Z,11.16
2022-10-08T04:19:20.835Z,11.20
2022-10-08T04:23:24.114Z,11.23
2022-10-08T04:27:27.483Z,11.27
2022-10-08T04:31:32.021Z,11.29
2022-10-08T04:35:38.469Z,11.30
2022-10-08T04:39:41.372Z,11.32
2022-10-08T04:43:45.220Z,11.35
2022-10-08T04:47:49.482Z,11.39
2022-10-08T04:51:52.552Z,11.41
2022-10-08T04:55:56.417Z,11.43
2022-10-08T05:00:17.727Z,11.44
2022-10-08T05:04:23.306Z,11.46
2022-10-08T05:08:26.278Z,11.47
2022-10-08T05:12:29.215Z,11.52
2022-10-08T05:16:32.545Z,11.57
2022-10-08T05:20:38.288Z,11.60
2022-10-08T05:24:41.328Z,11.59
2022-10-08T05:43:57.748Z,11.55
2022-10-08T05:48:19.659Z,11.52
2022-10-08T05:52:41.675Z,11.55
2022-10-08T05:57:04.860Z,11.61
2022-10-08T06:01:28.042Z,11.65
2022-10-08T06:11:51.240Z,11.78
2022-10-08T06:16:14.670Z,11.84
2022-10-08T06:20:38.033Z,11.93
2022-10-08T06:25:24.423Z,12.03
2022-10-08T06:30:11.767Z,12.10
2022-10-08T06:34:34.906Z,12.12
2022-10-08T06:45:02.089Z,12.24
2022-10-08T06:49:26.698Z,12.27
2022-10-08T06:53:54.200Z,12.27
2022-10-08T06:58:15.853Z,12.30
2022-10-08T07:02:37.868Z,12.35
2022-10-08T07:06:59.576Z,12.38
2022-10-08T07:11:48.450Z,12.42
2022-10-08T07:15:51.675Z,12.43
2022-10-08T07:19:54.969Z,12.46
2022-10-08T07:24:00.507Z,12.47
2022-10-08T07:28:04.827Z,12.49
2022-10-08T07:32:07.754Z,12.49
2022-10-08T07:36:12.888Z,12.53
2022-10-08T07:40:15.945Z,12.57
2022-10-08T07:44:20.502Z,12.63
2022-10-08T07:48:23.731Z,12.64
2022-10-08T07:52:26.669Z,12.63
2022-10-08T07:56:29.796Z,12.64
2022-10-08T08:00:34.659Z,12.72
2022-10-08T08:04:37.802Z,12.77
2022-10-08T08:08:43.519Z,12.83
2022-10-08T08:12:46.656Z,12.94
2022-10-08T08:16:51.080Z,13.04
2022-10-08T08:20:59.151Z,13.10
2022-10-08T08:25:02.222Z,13.20
2022-10-08T08:29:10.153Z,13.32
2022-10-08T08:33:15.072Z,13.53
2022-10-08T08:37:17.958Z,13.73
2022-10-08T08:41:33.949Z,13.93
2022-10-08T08:45:47.150Z,14.10
2022-10-08T08:49:54.564Z,14.35
2022-10-08T08:53:57.831Z,14.47
2022-10-08T08:58:11.092Z,14.52
2022-10-08T09:02:20.847Z,14.56
2022-10-08T09:06:26.942Z,14.66
2022-10-08T09:10:38.821Z,14.71
2022-10-08T09:14:45.902Z,14.79
2022-10-08T09:18:50.703Z,14.86
2022-10-08T09:22:55.790Z,14.96
2022-10-08T09:26:58.739Z,14.98
2022-10-08T09:31:14.406Z,15.02
2022-10-08T09:35:18.035Z,15.10
2022-10-08T09:39:24.513Z,15.20
2022-10-08T09:43:27.461Z,15.29
2022-10-08T09:47:31.142Z,15.31
2022-10-08T09:51:35.571Z,15.41
2022-10-08T09:55:41.019Z,15.43
2022-10-08T09:59:51.629Z,15.46
2022-10-08T10:03:56.342Z,15.52
2022-10-08T10:07:59.594Z,15.45
2022-10-08T10:12:10.522Z,15.46
2022-10-08T10:16:18.157Z,15.52
2022-10-08T10:20:26.417Z,15.58
2022-10-08T10:24:38.910Z,15.67
2022-10-08T10:28:47.116Z,15.81
2022-10-08T10:32:55.663Z,15.88
2022-10-08T10:37:00.700Z,16.02
2022-10-08T10:41:12.598Z,16.19
2022-10-08T10:45:22.677Z,16.26
2022-10-08T10:49:30.870Z,16.37
2022-10-08T10:53:45.187Z,16.44
2022-10-08T10:58:03.662Z,16.55
2022-10-08T11:02:17.764Z,16.68
2022-10-08T11:06:38.670Z,16.78
2022-10-08T11:10:57.597Z,16.87
2022-10-08T11:15:11.597Z,16.97
2022-10-08T11:19:27.419Z,17.10
2022-10-08T11:23:46.767Z,17.11
2022-10-08T11:28:06.188Z,17.11
2022-10-08T11:32:13.580Z,17.13
2022-10-08T11:36:29.238Z,17.14
2022-10-08T11:40:40.426Z,17.28
2022-10-08T11:44:43.637Z,17.31
2022-10-08T11:48:46.843Z,17.33
2022-10-08T11:52:52.349Z,17.37
2022-10-08T11:57:14.204Z,17.44
2022-10-08T12:01:17.159Z,17.49
2022-10-08T12:05:36.747Z,17.59
2022-10-08T12:10:09.936Z,17.68
2022-10-08T12:14:45.695Z,17.69
2022-10-08T12:18:52.546Z,17.64
2022-10-08T12:23:02.889Z,17.70
2022-10-08T12:27:31.661Z,17.75
2022-10-08T12:31:40.007Z,17.79
2022-10-08T12:35:57.156Z,17.83
2022-10-08T12:40:08.587Z,17.91
2022-10-08T12:44:29.029Z,17.99
2022-10-08T12:48:39.873Z,18.03
2022-10-08T12:52:42.975Z,18.07
2022-10-08T12:56:46.114Z,18.09
2022-10-08T13:00:55.329Z,18.11
2022-10-08T13:04:58.324Z,18.15
2022-10-08T13:09:05.890Z,18.20
2022-10-08T13:13:33.327Z,18.21
2022-10-08T13:17:37.930Z,18.18
2022-10-08T13:21:41.087Z,18.16
2022-10-08T13:25:44.169Z,18.13
2022-10-08T13:29:47.248Z,18.18
2022-10-08T13:33:52.393Z,18.22
2022-10-08T13:37:56.535Z,18.25
2022-10-08T13:42:01.907Z,18.22
2022-10-08T13:46:04.911Z,18.23
2022-10-08T13:50:10.090Z,18.24
2022-10-08T13:54:13.606Z,18.26
2022-10-08T13:58:18.063Z,18.31
2022-10-08T14:02:21.511Z,18.35
2022-10-08T14:06:26.131Z,18.34
2022-10-08T14:10:29.797Z,18.32
2022-10-08T14:14:32.835Z,18.34
2022-10-08T14:18:35.867Z,18.36
2022-10-08T14:22:40.230Z,18.39
2022-10-08T14:26:43.239Z,18.35
2022-10-08T14:30:46.528Z,18.31
2022-10-08T14:34:49.619Z,18.33
2022-10-08T14:38:54.291Z,18.34
2022-10-08T14:42:57.235Z,18.34
2022-10-08T14:47:00.283Z,18.31
2022-10-08T14:51:03.360Z,18.32
2022-10-08T14:55:08.791Z,18.37
2022-10-08T14:59:12.271Z,18.36
2022-10-08T15:03:15.574Z,18.34
2022-10-08T15:07:18.672Z,18.28
2022-10-08T15:11:23.455Z,18.21
2022-10-08T15:15:26.544Z,18.17
2022-10-08T15:19:29.560Z,18.15
2022-10-08T15:23:32.769Z,18.12
2022-10-08T15:27:37.167Z,18.08
2022-10-08T15:31:40.220Z,18.04
2022-10-08T15:35:43.491Z,18.00
2022-10-08T15:39:46.504Z,17.90
2022-10-08T15:43:51.036Z,17.82
2022-10-08T15:47:54.382Z,17.76
2022-10-08T15:51:57.590Z,17.73
2022-10-08T15:56:00.811Z,17.67
2022-10-08T16:00:05.924Z,17.63
2022-10-08T16:04:15.486Z,17.55
2022-10-08T16:08:18.731Z,17.46
2022-10-08T16:12:21.780Z,17.38
2022-10-08T16:16:26.505Z,17.35
2022-10-08T16:20:29.694Z,17.28
2022-10-08T16:24:32.690Z,17.24
2022-10-08T16:28:39.558Z,17.19
2022-10-08T16:32:43.991Z,17.14
2022-10-08T16:36:48.272Z,17.10
2022-10-08T16:40:51.446Z,17.04
2022-10-08T16:44:54.397Z,16.99
2022-10-08T16:49:01.840Z,16.94
2022-10-08T16:53:05.962Z,16.89
2022-10-08T16:57:09.115Z,16.79
2022-10-08T17:01:12.223Z,16.73
2022-10-08T17:05:17.830Z,16.68
2022-10-08T17:09:21.513Z,16.62
2022-10-08T17:13:24.532Z,16.56
2022-10-08T17:17:27.845Z,16.49
2022-10-08T17:21:34.988Z,16.42
2022-10-08T17:25:38.428Z,16.32
2022-10-08T17:29:41.583Z,16.26
2022-10-08T17:33:45.037Z,16.18
2022-10-08T17:37:49.622Z,16.08
2022-10-08T17:41:53.197Z,15.97
2022-10-08T17:45:56.287Z,15.85
2022-10-08T17:49:59.483Z,15.80
2022-10-08T17:54:06.034Z,15.73
2022-10-08T17:58:09.035Z,15.66
2022-10-08T18:02:12.420Z,15.63
2022-10-08T18:06:15.998Z,15.57
2022-10-08T18:10:20.575Z,15.52
2022-10-08T18:14:23.941Z,15.45
2022-10-08T18:18:27.156Z,15.37
2022-10-08T18:22:30.264Z,15.30
2022-10-08T18:26:37.140Z,15.28
2022-10-08T18:30:40.616Z,15.23
2022-10-08T18:34:43.715Z,15.17
2022-10-08T18:38:48.367Z,15.13
2022-10-08T18:42:52.765Z,15.10
2022-10-08T18:46:55.788Z,15.08
2022-10-08T18:51:03.816Z,15.06
2022-10-08T18:55:07.826Z,15.02
2022-10-08T18:59:15.186Z,14.96
2022-10-08T19:03:18.385Z,14.92
2022-10-08T19:07:21.374Z,14.88
2022-10-08T19:11:27.125Z,14.88
2022-10-08T19:15:31.556Z,14.84
2022-10-08T19:19:34.578Z,14.79
2022-10-08T19:23:37.726Z,14.73
2022-10-08T19:27:41.447Z,14.70
2022-10-08T19:31:47.658Z,14.67
2022-10-08T19:35:50.825Z,14.60
2022-10-08T19:39:53.804Z,14.51
2022-10-08T19:43:58.174Z,14.49
2022-10-08T19:48:02.716Z,14.51
2022-10-08T19:52:05.929Z,14.53
2022-10-08T19:56:10.511Z,14.57
2022-10-08T20:00:14.723Z,14.60
2022-10-08T20:04:22.325Z,14.59
2022-10-08T20:08:50.343Z,14.60
2022-10-08T20:12:54.609Z,14.59
2022-10-08T20:16:58.270Z,14.58
2022-10-08T20:24:54.520Z,14.59
2022-10-08T20:28:59.741Z,14.59
2022-10-08T20:33:02.971Z,14.60
2022-10-08T20:37:06.101Z,14.59
2022-10-08T20:41:11.552Z,14.61
2022-10-08T20:45:14.712Z,14.59
2022-10-08T20:49:18.563Z,14.56
2022-10-08T20:53:21.591Z,14.56
2022-10-08T20:57:26.066Z,14.58
2022-10-08T21:01:31.126Z,14.58
2022-10-08T21:05:40.085Z,14.57
2022-10-08T21:09:43.394Z,14.61
2022-10-08T21:13:48.933Z,14.62
2022-10-08T21:17:51.907Z,14.62
2022-10-08T21:21:54.938Z,14.65
2022-10-08T21:26:07.577Z,14.67
2022-10-08T21:30:13.855Z,14.68
2022-10-08T21:34:17.057Z,14.68
2022-10-08T21:38:20.081Z,14.69
2022-10-08T21:42:23.386Z,14.68
2022-10-08T21:46:29.615Z,14.68
2022-10-08T21:50:35.927Z,14.67
2022-10-08T21:54:39.386Z,14.67
2022-10-08T21:58:44.577Z,14.67
2022-10-08T22:02:49.446Z,14.65
2022-10-08T22:06:54.357Z,14.61
2022-10-08T22:10:57.917Z,14.58
2022-10-08T22:15:01.237Z,14.56
2022-10-08T22:19:06.423Z,14.55
2022-10-08T22:23:09.912Z,14.51
2022-10-08T22:27:13.149Z,14.51
2022-10-08T22:31:18.087Z,14.51
2022-10-08T22:35:22.519Z,14.51
2022-10-08T22:39:25.794Z,14.50
2022-10-08T22:43:28.811Z,14.48
2022-10-08T22:47:31.791Z,14.47
2022-10-08T22:51:36.803Z,14.49
2022-10-08T22:55:41.899Z,14.47
2022-10-08T22:59:45.092Z,14.48
2022-10-08T23:03:48.498Z,14.49
2022-10-08T23:07:57.079Z,14.49
2022-10-08T23:12:00.044Z,14.49
2022-10-08T23:16:05.236Z,14.51
2022-10-08T23:20:08.939Z,14.51
2022-10-08T23:24:13.746Z,14.52
2022-10-08T23:28:17.014Z,14.52
2022-10-08T23:32:20.088Z,14.51
2022-10-08T23:36:25.902Z,14.52
2022-10-08T23:40:30.306Z,14.51
2022-10-08T23:44:34.747Z,14.52
2022-10-08T23:48:38.225Z,14.54
2022-10-08T23:52:41.230Z,14.52
2022-10-08T23:56:45.653Z,14.53
